• Join FlightAware (Why Join?)
  • Login
  • US Flag GB Flag 
08:45 EDT


 

Airport Tracker/Info


-or-


 

Live Flight TrackerFlight Track Log ✈ DAL1981 ✈ 24-Apr-2013 ✈ KALB - KATL

Flight Track Log - Related Links

Times and Time Zones

All times are in EDT time to prevent confusion due to time zone crossing. See the DAL1981 flight status page for this flight to view local times or setup timezone preferences in your user account.

Time Position Orientation Groundspeed Altitude Reporting Facility
EDT Latitude Longitude Course Direction KTS MPH feet Rate Location/Type
06:09 42.7631 -73.8061 180° South 160 184 1,400  Level Boston Center
06:10 42.8067 -73.8211 346° North 217 250 2,900 2,040 Climbing Boston Center
06:10 42.8336 -73.8500 322° Northwest 254 292 3,700 3,060 Climbing Boston Center
06:11 42.5148 -74.1296 200° South  Level Estimated
06:11 42.8786 -73.9050 318° Northwest 259 298 7,200  Level Boston Center
06:12 42.4365 -74.2382 198° South  Level Estimated
06:12 42.9300 -73.9658 319° Northwest 267 307 10,200  Level Boston Center
06:13 42.3581 -74.3466 200° South  Level Estimated
06:13 42.9578 -74.0656 291° West 257 296 13,400  Level Boston Center
06:14 42.2795 -74.4547 180° South  Level Estimated
06:14 42.9106 -74.1522 233° Southwest 298 343 14,600  Level Boston Center
06:15 42.8139 -74.2175 206° Southwest 348 400 17,000 2,100 Climbing Boston Center
06:16 42.7267 -74.1897 167° South 366 421 18,800 2,040 Climbing Boston Center
06:17 42.6000 -74.1522 168° South 395 455 21,100 2,400 Climbing Boston Center
06:18 42.4736 -74.1122 167° South 414 476 23,600 2,160 Climbing Boston Center
06:19 42.3553 -74.0753 167° South 428 493 25,500 1,680 Climbing Boston Center
06:20 42.2350 -74.0411 168° South 433 498 27,000 1,260 Climbing Boston Center
06:21 42.1119 -74.0436 181° South 433 498 28,300 1,260 Climbing Boston Center
06:22 41.9553 -74.0536 183° South 457 526 29,900 840 Climbing Boston Center
06:23 41.8261 -74.0614 183° South 464 534 30,000 480 Climbing Boston Center
06:26 41.5297 -74.0742 182° South 464 534 31,600 840 Climbing New York Center
06:27 41.4006 -74.0817 182° South 464 534 33,000 1,200 Climbing New York Center
06:28 41.2692 -74.0892 182° South 469 540 34,000 480 Climbing New York Center
06:29 41.1433 -74.1131 188° South 469 540 34,000 -60 Level New York Center
06:30 41.0569 -74.2272 225° Southwest 426 490 33,900  Descending New York Center
06:31 40.9822 -74.3525 232° Southwest 426 490 34,000  Climbing New York Center
06:32 40.9056 -74.4747 230° Southwest 431 496 34,000  Level New York Center
06:33 40.8308 -74.5969 231° Southwest 436 502 34,000  Level New York Center
06:34 40.7517 -74.7211 230° Southwest 441 507 34,000  Level New York Center
06:35 40.6769 -74.8428 231° Southwest 441 507 34,000  Level New York Center
06:36 40.5994 -74.9667 231° Southwest 441 507 34,000  Level New York Center
06:37 40.5222 -75.0875 230° Southwest 441 507 34,000  Level New York Center
06:38 40.4447 -75.2081 230° Southwest 441 507 34,000  Level New York Center
06:39 40.3672 -75.3339 231° Southwest 447 514 34,000  Level New York Center
06:40 40.2894 -75.4567 230° Southwest 447 514 34,000  Level New York Center
06:41 40.2136 -75.5792 231° Southwest 447 514 34,000  Level New York Center
06:42 40.1497 -75.7106 238° Southwest 442 509 34,000  Level New York Center
06:43 40.0839 -75.8389 236° Southwest 436 502 34,000  Level New York Center
06:44 40.0153 -75.9803 238° Southwest 430 495 34,000  Level New York Center
06:45 39.9100 -76.1839 236° Southwest 414 476 34,000  Level Washington Center
06:46 39.8447 -76.3103 236° Southwest 415 478 34,000  Level Washington Center
06:47 39.7836 -76.4339 237° Southwest 415 478 34,000  Level Washington Center
06:48 39.7139 -76.5517 232° Southwest 420 483 34,000  Level Washington Center
06:49 39.6483 -76.6750 235° Southwest 420 483 34,000  Level Washington Center
06:50 39.5847 -76.7953 236° Southwest 420 483 34,000  Level Washington Center
06:51 39.5253 -76.9125 237° Southwest 415 478 34,000  Level Washington Center
06:52 39.4531 -77.0214 229° Southwest 409 471 34,000  Level Washington Center
06:53 39.3664 -77.1111 219° Southwest 404 465 34,000  Level Washington Center
06:54 39.2800 -77.2031 219° Southwest 404 465 34,000  Level Washington Center
06:55 39.1911 -77.2975 219° Southwest 409 471 34,000  Level Washington Center
06:56 39.1064 -77.3864 219° Southwest 409 471 34,000  Level Washington Center
06:57 39.0194 -77.4778 219° Southwest 409 471 34,000  Level Washington Center
06:58 38.9325 -77.5689 219° Southwest 414 476 34,000  Level Washington Center
06:59 38.8500 -77.6522 218° Southwest 414 476 34,000  Level Washington Center
07:00 38.7628 -77.7428 219° Southwest 414 476 34,000  Level Washington Center
07:01 38.6736 -77.8358 219° Southwest 414 476 34,000  Level Washington Center
07:02 38.5964 -77.9425 227° Southwest 408 470 34,000  Level Washington Center
07:03 38.5317 -78.0547 234° Southwest 402 463 34,000  Level Washington Center
07:04 38.4647 -78.1664 233° Southwest 402 463 34,000  Level Washington Center
07:05 38.3997 -78.2781 233° Southwest 402 463 34,000  Level Washington Center
07:06 38.3347 -78.3897 233° Southwest 402 463 34,000  Level Washington Center
07:07 38.2694 -78.5008 233° Southwest 402 463 34,000  Level Washington Center
07:08 38.2061 -78.6094 233° Southwest 402 463 34,000  Level Washington Center
07:09 38.1408 -78.7203 233° Southwest 402 463 34,000  Level Washington Center
07:10 38.0733 -78.8283 232° Southwest 402 463 34,000  Level Washington Center
07:11 38.0033 -78.9464 233° Southwest 402 463 34,000  Level Washington Center
07:12 37.9333 -79.0567 231° Southwest 402 463 34,000  Level Washington Center
07:13 37.8636 -79.1611 230° Southwest 402 463 34,000  Level Washington Center
07:14 37.7917 -79.2631 228° Southwest 395 455 34,000  Level Washington Center
07:15 37.7114 -79.3642 225° Southwest 405 466 34,000  Level Washington Center
07:16 37.6372 -79.4706 229° Southwest 411 473 34,000  Level Washington Center
07:17 37.5628 -79.5742 228° Southwest 411 473 34,000  Level Washington Center
07:18 37.4864 -79.6775 227° Southwest 411 473 34,000  Level Washington Center
07:19 37.4161 -79.7783 229° Southwest 413 475 34,000  Level Washington Center
07:20 37.3394 -79.8811 227° Southwest 413 475 34,000  Level Washington Center
07:21 37.2647 -79.9839 228° Southwest 413 475 34,000  Level Washington Center
07:23 37.1136 -80.1894 227° Southwest 425 489 34,000  Level Atlanta Center
07:24 37.0294 -80.3000 226° Southwest 413 475 34,000  Level Atlanta Center
07:25 36.9533 -80.4050 228° Southwest 408 470 34,000  Level Atlanta Center
07:26 36.8728 -80.5072 225° Southwest 408 470 34,000  Level Atlanta Center
07:27 36.7944 -80.6092 226° Southwest 408 470 34,000  Level Atlanta Center
07:28 36.7303 -80.7000 229° Southwest 401 461 34,000  Level Atlanta Center
07:29 36.6517 -80.8017 226° Southwest 401 461 34,000  Level Atlanta Center
07:30 36.5731 -80.9031 226° Southwest 406 467 34,000  Level Atlanta Center
07:31 36.4883 -81.0175 227° Southwest 406 467 34,000  Level Atlanta Center
07:32 36.4094 -81.1211 227° Southwest 406 467 34,000  Level Atlanta Center
07:33 36.3306 -81.2269 227° Southwest 406 467 34,000  Level Atlanta Center
07:34 36.2536 -81.3300 227° Southwest 406 467 34,000  Level Atlanta Center
07:35 36.1725 -81.4306 225° Southwest 406 467 34,000  Level Atlanta Center
07:36 36.0953 -81.5358 228° Southwest 411 473 34,000  Level Atlanta Center
07:37 36.0158 -81.6358 226° Southwest 405 466 34,000  Level Atlanta Center
07:38 35.9386 -81.7408 228° Southwest 410 472 34,000  Level Atlanta Center
07:39 35.8550 -81.8456 225° Southwest 415 478 34,000  Level Atlanta Center
07:40 35.7756 -81.9475 226° Southwest 415 478 34,000  Level Atlanta Center
07:41 35.6939 -82.0519 226° Southwest 415 478 34,000  Level Atlanta Center
07:42 35.6100 -82.1561 225° Southwest 415 478 34,000  Level Atlanta Center
07:43 35.5300 -82.2600 227° Southwest 415 478 34,000 -360 Level Atlanta Center
07:44 35.4481 -82.3614 225° Southwest 415 478 33,300 -600 Descending Atlanta Center
07:45 35.3764 -82.4569 227° Southwest 415 478 32,900 -540 Descending Atlanta Center
07:46 35.2942 -82.5603 226° Southwest 420 483 32,300 -600 Descending Atlanta Center
07:47 35.2036 -82.6636 223° Southwest 414 476 31,700 -540 Descending Atlanta Center
07:48 35.1211 -82.7667 226° Southwest 414 476 31,300 -480 Descending Atlanta Center
07:49 35.0389 -82.8694 226° Southwest 414 476 30,800 -660 Descending Atlanta Center
07:50 34.9542 -82.9769 226° Southwest 425 489 30,000 -780 Descending Atlanta Center
07:51 34.8736 -83.0767 225° Southwest 425 489 29,300 -900 Descending Atlanta Center
07:52 34.7908 -83.1739 224° Southwest 417 480 28,300 -1,320 Descending Atlanta Center
07:53 34.7164 -83.2706 227° Southwest 408 470 26,700 -2,100 Descending Atlanta Center
07:54 34.6333 -83.3547 220° Southwest 402 463 24,100 -2,340 Descending Atlanta Center
07:55 34.5483 -83.4311 217° Southwest 384 442 22,100 -1,860 Descending Atlanta Center
07:56 34.4714 -83.4994 216° Southwest 361 415 20,400 -1,860 Descending Atlanta Center
07:57 34.3986 -83.5656 217° Southwest 344 396 18,400 -1,560 Descending Atlanta Center
07:58 34.3342 -83.6236 217° Southwest 332 382 17,300 -1,440 Descending Atlanta Center
07:59 34.2656 -83.6819 215° Southwest 313 360 15,600 -1,620 Descending Atlanta Center
08:00 34.2008 -83.7400 217° Southwest 301 346 14,100 -1,680 Descending Atlanta Center
08:01 34.1425 -83.7978 219° Southwest 285 328 12,300 -1,140 Descending Atlanta Center
08:02 34.0800 -83.8533 216° Southwest 285 328 11,900 -600 Descending Atlanta Center
08:03 34.0667 -83.9000 251° West 282 325 11,500 -900 Descending Atlanta TRACON
08:04 34.0333 -83.9833 244° Southwest 289 333 10,600 -780 Descending Atlanta TRACON
08:05 34.0000 -84.0667 244° Southwest 276 318 10,000 -720 Descending Atlanta TRACON
08:06 33.9333 -84.1000 203° Southwest 270 311 9,200 -1,200 Descending Atlanta TRACON
08:07 33.8667 -84.1000 180° South 264 304 7,700 -1,620 Descending Atlanta TRACON
08:07 33.8275 -84.1039 185° South 261 300 6,800 -1,320 Descending Atlanta Center
08:08 33.7608 -84.1014 178° South 256 295 5,700 -1,200 Descending Atlanta Center
08:10 33.6833 -84.1333 199° South 201 231 3,800 -1,080 Descending Atlanta TRACON
08:11 33.6500 -84.2000 239° Southwest 205 236 3,000 -420 Descending Atlanta TRACON
08:12 33.6500 -84.2667 270° West 208 239 3,000  Level Atlanta TRACON